sensor_id;sensor_type;location;lat;lon;timestamp;temperature;humidity
25438;DHT22;13364;49.084;9.978;2023-11-21T05:01:10;8.20;100.00
25438;DHT22;13364;49.084;9.978;2023-11-21T05:03:36;8.20;100.00
25438;DHT22;13364;49.084;9.978;2023-11-21T05:06:05;8.20;100.00
25438;DHT22;13364;49.084;9.978;2023-11-21T05:08:32;8.20;100.00
25438;DHT22;13364;49.084;9.978;2023-11-21T05:10:59;8.20;100.00
25438;DHT22;13364;49.084;9.978;2023-11-21T05:13:26;8.20;100.00
25438;DHT22;13364;49.084;9.978;2023-11-21T05:15:55;8.20;100.00
25438;DHT22;13364;49.084;9.978;2023-11-21T05:18:24;8.20;100.00
25438;DHT22;13364;49.084;9.978;2023-11-21T05:20:54;8.20;100.00
25438;DHT22;13364;49.084;9.978;2023-11-21T05:23:21;8.20;100.00
25438;DHT22;13364;49.084;9.978;2023-11-21T05:25:47;8.20;100.00
25438;DHT22;13364;49.084;9.978;2023-11-21T05:28:14;8.30;100.00
25438;DHT22;13364;49.084;9.978;2023-11-21T05:30:41;8.30;100.00
25438;DHT22;13364;49.084;9.978;2023-11-21T05:33:08;8.30;100.00
25438;DHT22;13364;49.084;9.978;2023-11-21T05:35:35;8.30;100.00
25438;DHT22;13364;49.084;9.978;2023-11-21T05:38:01;8.30;100.00
25438;DHT22;13364;49.084;9.978;2023-11-21T05:40:28;8.30;100.00
25438;DHT22;13364;49.084;9.978;2023-11-21T05:42:56;8.30;100.00
25438;DHT22;13364;49.084;9.978;2023-11-21T05:45:23;8.30;100.00
25438;DHT22;13364;49.084;9.978;2023-11-21T05:47:50;8.30;100.00
25438;DHT22;13364;49.084;9.978;2023-11-21T05:50:17;8.30;100.00
25438;DHT22;13364;49.084;9.978;2023-11-21T05:52:46;8.30;100.00
25438;DHT22;13364;49.084;9.978;2023-11-21T05:55:14;8.30;100.00
25438;DHT22;13364;49.084;9.978;2023-11-21T05:57:42;8.30;100.00
25438;DHT22;13364;49.084;9.978;2023-11-21T06:00:14;8.30;100.00
25438;DHT22;13364;49.084;9.978;2023-11-21T06:02:49;8.30;100.00
25438;DHT22;13364;49.084;9.978;2023-11-21T06:05:24;8.30;100.00
25438;DHT22;13364;49.084;9.978;2023-11-21T06:07:52;8.20;100.00
25438;DHT22;13364;49.084;9.978;2023-11-21T06:10:20;8.30;100.00
25438;DHT22;13364;49.084;9.978;2023-11-21T06:12:48;8.20;100.00
25438;DHT22;13364;49.084;9.978;2023-11-21T06:15:15;8.20;100.00
25438;DHT22;13364;49.084;9.978;2023-11-21T06:17:42;8.20;100.00
25438;DHT22;13364;49.084;9.978;2023-11-21T06:20:11;8.20;100.00
25438;DHT22;13364;49.084;9.978;2023-11-21T06:22:42;8.20;100.00
25438;DHT22;13364;49.084;9.978;2023-11-21T06:25:10;8.20;100.00
25438;DHT22;13364;49.084;9.978;2023-11-21T06:27:41;8.20;100.00
25438;DHT22;13364;49.084;9.978;2023-11-21T06:30:08;8.10;100.00
25438;DHT22;13364;49.084;9.978;2023-11-21T06:32:37;8.10;100.00
25438;DHT22;13364;49.084;9.978;2023-11-21T06:35:05;8.10;100.00
25438;DHT22;13364;49.084;9.978;2023-11-21T06:37:32;8.10;100.00
25438;DHT22;13364;49.084;9.978;2023-11-21T06:40:00;8.10;100.00
25438;DHT22;13364;49.084;9.978;2023-11-21T06:42:27;8.00;100.00
25438;DHT22;13364;49.084;9.978;2023-11-21T06:44:56;8.00;100.00
25438;DHT22;13364;49.084;9.978;2023-11-21T06:47:24;8.00;100.00
25438;DHT22;13364;49.084;9.978;2023-11-21T06:49:55;8.00;100.00
25438;DHT22;13364;49.084;9.978;2023-11-21T06:52:22;8.00;100.00
25438;DHT22;13364;49.084;9.978;2023-11-21T06:54:49;8.00;100.00
25438;DHT22;13364;49.084;9.978;2023-11-21T06:57:16;8.00;100.00
25438;DHT22;13364;49.084;9.978;2023-11-21T06:59:44;8.00;100.00
25438;DHT22;13364;49.084;9.978;2023-11-21T07:02:11;8.00;100.00
25438;DHT22;13364;49.084;9.978;2023-11-21T07:04:38;8.00;100.00
25438;DHT22;13364;49.084;9.978;2023-11-21T07:07:06;8.00;100.00
25438;DHT22;13364;49.084;9.978;2023-11-21T07:09:34;8.10;100.00
25438;DHT22;13364;49.084;9.978;2023-11-21T07:12:00;8.10;100.00
25438;DHT22;13364;49.084;9.978;2023-11-21T07:14:30;8.10;100.00
25438;DHT22;13364;49.084;9.978;2023-11-21T07:16:57;8.10;100.00
25438;DHT22;13364;49.084;9.978;2023-11-21T07:19:24;8.10;100.00
25438;DHT22;13364;49.084;9.978;2023-11-21T07:21:51;8.10;100.00
25438;DHT22;13364;49.084;9.978;2023-11-21T07:24:18;8.00;100.00
25438;DHT22;13364;49.084;9.978;2023-11-21T07:26:45;8.00;100.00
25438;DHT22;13364;49.084;9.978;2023-11-21T07:29:12;8.10;100.00
25438;DHT22;13364;49.084;9.978;2023-11-21T07:31:40;8.10;100.00
25438;DHT22;13364;49.084;9.978;2023-11-21T07:34:08;8.10;100.00
25438;DHT22;13364;49.084;9.978;2023-11-21T07:36:36;8.10;100.00
25438;DHT22;13364;49.084;9.978;2023-11-21T07:39:03;8.20;100.00
25438;DHT22;13364;49.084;9.978;2023-11-21T07:41:30;8.20;100.00
25438;DHT22;13364;49.084;9.978;2023-11-21T07:43:57;8.20;100.00
25438;DHT22;13364;49.084;9.978;2023-11-21T07:46:26;8.30;100.00
25438;DHT22;13364;49.084;9.978;2023-11-21T07:48:54;8.30;100.00
25438;DHT22;13364;49.084;9.978;2023-11-21T07:51:22;8.40;100.00
25438;DHT22;13364;49.084;9.978;2023-11-21T07:53:49;8.40;100.00
25438;DHT22;13364;49.084;9.978;2023-11-21T07:56:16;8.50;100.00
25438;DHT22;13364;49.084;9.978;2023-11-21T07:58:44;8.50;100.00
25438;DHT22;13364;49.084;9.978;2023-11-21T08:01:12;8.60;100.00
25438;DHT22;13364;49.084;9.978;2023-11-21T08:03:39;8.70;100.00
25438;DHT22;13364;49.084;9.978;2023-11-21T08:06:06;8.80;100.00
25438;DHT22;13364;49.084;9.978;2023-11-21T08:08:34;8.90;100.00
25438;DHT22;13364;49.084;9.978;2023-11-21T08:11:01;8.90;100.00
25438;DHT22;13364;49.084;9.978;2023-11-21T08:13:30;9.00;100.00
25438;DHT22;13364;49.084;9.978;2023-11-21T08:15:58;8.90;100.00
25438;DHT22;13364;49.084;9.978;2023-11-21T08:18:32;9.00;100.00
25438;DHT22;13364;49.084;9.978;2023-11-21T08:20:58;9.00;100.00
25438;DHT22;13364;49.084;9.978;2023-11-21T08:23:25;9.10;100.00
25438;DHT22;13364;49.084;9.978;2023-11-21T08:25:53;9.10;100.00
25438;DHT22;13364;49.084;9.978;2023-11-21T08:28:20;9.20;100.00
25438;DHT22;13364;49.084;9.978;2023-11-21T08:30:52;9.20;100.00
25438;DHT22;13364;49.084;9.978;2023-11-21T08:33:21;9.30;100.00
25438;DHT22;13364;49.084;9.978;2023-11-21T08:35:48;9.40;100.00
25438;DHT22;13364;49.084;9.978;2023-11-21T08:38:15;9.50;100.00
25438;DHT22;13364;49.084;9.978;2023-11-21T08:40:42;9.50;100.00
25438;DHT22;13364;49.084;9.978;2023-11-21T08:43:09;9.50;100.00
25438;DHT22;13364;49.084;9.978;2023-11-21T08:45:38;9.50;100.00
25438;DHT22;13364;49.084;9.978;2023-11-21T08:48:05;9.50;100.00
25438;DHT22;13364;49.084;9.978;2023-11-21T08:50:32;9.50;100.00
25438;DHT22;13364;49.084;9.978;2023-11-21T08:52:59;9.50;100.00
25438;DHT22;13364;49.084;9.978;2023-11-21T08:55:26;9.50;100.00
25438;DHT22;13364;49.084;9.978;2023-11-21T08:57:54;9.60;100.00
25438;DHT22;13364;49.084;9.978;2023-11-21T09:00:24;9.60;100.00
25438;DHT22;13364;49.084;9.978;2023-11-21T09:02:51;9.60;100.00
25438;DHT22;13364;49.084;9.978;2023-11-21T09:05:18;9.50;100.00
25438;DHT22;13364;49.084;9.978;2023-11-21T09:07:47;9.60;100.00
25438;DHT22;13364;49.084;9.978;2023-11-21T09:10:15;9.60;100.00
25438;DHT22;13364;49.084;9.978;2023-11-21T09:12:42;9.60;100.00
25438;DHT22;13364;49.084;9.978;2023-11-21T09:15:10;9.60;100.00
25438;DHT22;13364;49.084;9.978;2023-11-21T09:17:38;9.60;99.90
25438;DHT22;13364;49.084;9.978;2023-11-21T09:20:07;9.60;100.00
25438;DHT22;13364;49.084;9.978;2023-11-21T09:22:36;9.70;99.90
25438;DHT22;13364;49.084;9.978;2023-11-21T09:25:04;9.70;99.80
25438;DHT22;13364;49.084;9.978;2023-11-21T09:27:35;9.70;99.20
25438;DHT22;13364;49.084;9.978;2023-11-21T09:30:06;9.60;99.40
25438;DHT22;13364;49.084;9.978;2023-11-21T09:32:37;9.60;99.50
25438;DHT22;13364;49.084;9.978;2023-11-21T09:35:05;9.70;99.50
25438;DHT22;13364;49.084;9.978;2023-11-21T09:37:32;9.70;99.60
25438;DHT22;13364;49.084;9.978;2023-11-21T09:39:59;9.70;99.70
25438;DHT22;13364;49.084;9.978;2023-11-21T09:42:37;9.70;99.50
25438;DHT22;13364;49.084;9.978;2023-11-21T09:47:55;9.70;99.00
25438;DHT22;13364;49.084;9.978;2023-11-21T09:50:23;9.60;99.20
25438;DHT22;13364;49.084;9.978;2023-11-21T09:53:13;9.60;99.60
25438;DHT22;13364;49.084;9.978;2023-11-21T09:55:44;9.60;100.00
25438;DHT22;13364;49.084;9.978;2023-11-21T09:58:12;9.60;99.80
25438;DHT22;13364;49.084;9.978;2023-11-21T10:00:41;9.60;99.70
25438;DHT22;13364;49.084;9.978;2023-11-21T10:03:09;9.60;99.60
25438;DHT22;13364;49.084;9.978;2023-11-21T10:05:37;9.70;99.30
25438;DHT22;13364;49.084;9.978;2023-11-21T10:08:08;9.70;99.40
25438;DHT22;13364;49.084;9.978;2023-11-21T10:10:37;9.70;99.80
25438;DHT22;13364;49.084;9.978;2023-11-21T10:13:06;9.80;100.00
25438;DHT22;13364;49.084;9.978;2023-11-21T10:15:34;9.80;99.30
25438;DHT22;13364;49.084;9.978;2023-11-21T10:18:07;9.80;99.30
25438;DHT22;13364;49.084;9.978;2023-11-21T10:20:34;9.80;99.10
25438;DHT22;13364;49.084;9.978;2023-11-21T10:23:01;9.80;98.80
25438;DHT22;13364;49.084;9.978;2023-11-21T10:25:30;9.80;98.70
25438;DHT22;13364;49.084;9.978;2023-11-21T10:27:58;9.70;98.80
25438;DHT22;13364;49.084;9.978;2023-11-21T10:30:31;9.80;99.60
25438;DHT22;13364;49.084;9.978;2023-11-21T10:33:00;9.80;99.40
25438;DHT22;13364;49.084;9.978;2023-11-21T10:38:08;10.00;99.20
25438;DHT22;13364;49.084;9.978;2023-11-21T10:40:41;10.10;99.00
25438;DHT22;13364;49.084;9.978;2023-11-21T10:43:09;10.20;98.60
25438;DHT22;13364;49.084;9.978;2023-11-21T10:45:39;10.30;98.70
25438;DHT22;13364;49.084;9.978;2023-11-21T10:48:07;10.30;98.40
25438;DHT22;13364;49.084;9.978;2023-11-21T10:50:35;10.30;98.80
25438;DHT22;13364;49.084;9.978;2023-11-21T10:53:03;10.40;98.00
25438;DHT22;13364;49.084;9.978;2023-11-21T10:55:32;10.40;97.50
25438;DHT22;13364;49.084;9.978;2023-11-21T10:58:01;10.30;96.40
25438;DHT22;13364;49.084;9.978;2023-11-21T11:00:30;10.30;97.30
25438;DHT22;13364;49.084;9.978;2023-11-21T11:02:57;10.30;97.90
25438;DHT22;13364;49.084;9.978;2023-11-21T11:05:27;10.30;98.40
25438;DHT22;13364;49.084;9.978;2023-11-21T11:08:15;10.30;97.70
25438;DHT22;13364;49.084;9.978;2023-11-21T11:10:45;10.30;97.30
25438;DHT22;13364;49.084;9.978;2023-11-21T11:13:14;10.30;96.80
25438;DHT22;13364;49.084;9.978;2023-11-21T11:15:42;10.20;96.40
25438;DHT22;13364;49.084;9.978;2023-11-21T11:18:11;10.10;96.70
25438;DHT22;13364;49.084;9.978;2023-11-21T11:20:42;9.90;96.90
25438;DHT22;13364;49.084;9.978;2023-11-21T11:29:01;9.30;99.20
25438;DHT22;13364;49.084;9.978;2023-11-21T11:31:39;9.20;100.00
25438;DHT22;13364;49.084;9.978;2023-11-21T11:34:11;9.20;100.00
25438;DHT22;13364;49.084;9.978;2023-11-21T11:36:55;9.10;100.00
25438;DHT22;13364;49.084;9.978;2023-11-21T11:39:35;9.10;100.00
25438;DHT22;13364;49.084;9.978;2023-11-21T11:42:05;9.10;100.00
25438;DHT22;13364;49.084;9.978;2023-11-21T11:50:05;9.10;100.00
25438;DHT22;13364;49.084;9.978;2023-11-21T11:52:50;9.20;100.00
25438;DHT22;13364;49.084;9.978;2023-11-21T11:55:23;9.30;100.00
25438;DHT22;13364;49.084;9.978;2023-11-21T11:57:54;9.50;100.00
25438;DHT22;13364;49.084;9.978;2023-11-21T12:03:02;9.60;100.00
25438;DHT22;13364;49.084;9.978;2023-11-21T12:05:31;9.60;100.00
25438;DHT22;13364;49.084;9.978;2023-11-21T12:08:11;9.50;99.20
25438;DHT22;13364;49.084;9.978;2023-11-21T12:10:39;9.20;100.00
25438;DHT22;13364;49.084;9.978;2023-11-21T12:13:10;8.90;100.00
25438;DHT22;13364;49.084;9.978;2023-11-21T12:15:39;8.70;100.00
25438;DHT22;13364;49.084;9.978;2023-11-21T12:18:07;8.60;100.00
25438;DHT22;13364;49.084;9.978;2023-11-21T12:20:34;8.40;100.00
25438;DHT22;13364;49.084;9.978;2023-11-21T12:23:06;8.30;100.00
25438;DHT22;13364;49.084;9.978;2023-11-21T12:25:35;8.20;100.00
25438;DHT22;13364;49.084;9.978;2023-11-21T12:28:03;8.20;100.00
25438;DHT22;13364;49.084;9.978;2023-11-21T12:30:32;8.10;100.00
25438;DHT22;13364;49.084;9.978;2023-11-21T12:33:02;8.00;100.00
25438;DHT22;13364;49.084;9.978;2023-11-21T12:35:30;7.90;100.00
25438;DHT22;13364;49.084;9.978;2023-11-21T12:38:01;7.80;100.00
25438;DHT22;13364;49.084;9.978;2023-11-21T12:40:31;7.80;100.00
25438;DHT22;13364;49.084;9.978;2023-11-21T12:43:00;7.70;100.00
25438;DHT22;13364;49.084;9.978;2023-11-21T12:45:29;7.60;100.00
25438;DHT22;13364;49.084;9.978;2023-11-21T12:48:00;7.60;100.00
25438;DHT22;13364;49.084;9.978;2023-11-21T12:50:31;7.50;100.00
25438;DHT22;13364;49.084;9.978;2023-11-21T12:53:05;7.50;100.00
25438;DHT22;13364;49.084;9.978;2023-11-21T12:55:33;7.50;100.00
25438;DHT22;13364;49.084;9.978;2023-11-21T12:58:06;7.50;100.00
25438;DHT22;13364;49.084;9.978;2023-11-21T13:00:45;7.50;100.00
25438;DHT22;13364;49.084;9.978;2023-11-21T13:03:15;7.50;100.00
25438;DHT22;13364;49.084;9.978;2023-11-21T13:05:47;7.50;100.00
25438;DHT22;13364;49.084;9.978;2023-11-21T13:08:20;7.60;100.00
25438;DHT22;13364;49.084;9.978;2023-11-21T13:10:50;7.50;100.00
25438;DHT22;13364;49.084;9.978;2023-11-21T13:13:17;7.50;100.00
25438;DHT22;13364;49.084;9.978;2023-11-21T13:15:51;7.60;100.00
25438;DHT22;13364;49.084;9.978;2023-11-21T13:18:19;7.60;100.00
25438;DHT22;13364;49.084;9.978;2023-11-21T13:20:49;7.60;100.00
25438;DHT22;13364;49.084;9.978;2023-11-21T13:23:16;7.60;100.00
25438;DHT22;13364;49.084;9.978;2023-11-21T13:25:43;7.60;100.00
25438;DHT22;13364;49.084;9.978;2023-11-21T13:28:20;7.70;100.00
25438;DHT22;13364;49.084;9.978;2023-11-21T13:30:48;7.70;100.00
25438;DHT22;13364;49.084;9.978;2023-11-21T13:33:21;7.70;100.00
25438;DHT22;13364;49.084;9.978;2023-11-21T13:35:54;7.70;100.00
25438;DHT22;13364;49.084;9.978;2023-11-21T13:38:23;7.70;100.00
25438;DHT22;13364;49.084;9.978;2023-11-21T13:40:51;7.70;100.00
25438;DHT22;13364;49.084;9.978;2023-11-21T13:43:24;7.70;100.00
25438;DHT22;13364;49.084;9.978;2023-11-21T13:45:53;7.70;100.00
25438;DHT22;13364;49.084;9.978;2023-11-21T13:48:41;7.70;100.00
25438;DHT22;13364;49.084;9.978;2023-11-21T13:51:09;7.70;100.00
25438;DHT22;13364;49.084;9.978;2023-11-21T13:53:48;7.70;100.00
25438;DHT22;13364;49.084;9.978;2023-11-21T13:56:19;7.70;100.00
25438;DHT22;13364;49.084;9.978;2023-11-21T13:58:51;7.70;100.00
25438;DHT22;13364;49.084;9.978;2023-11-21T14:01:24;7.60;100.00
25438;DHT22;13364;49.084;9.978;2023-11-21T14:03:57;7.60;100.00
25438;DHT22;13364;49.084;9.978;2023-11-21T14:06:35;7.60;100.00
25438;DHT22;13364;49.084;9.978;2023-11-21T14:09:12;7.60;100.00
25438;DHT22;13364;49.084;9.978;2023-11-21T14:11:48;7.60;100.00
25438;DHT22;13364;49.084;9.978;2023-11-21T14:14:15;7.70;100.00
25438;DHT22;13364;49.084;9.978;2023-11-21T14:16:44;7.70;100.00
25438;DHT22;13364;49.084;9.978;2023-11-21T14:19:11;7.70;100.00
25438;DHT22;13364;49.084;9.978;2023-11-21T14:21:43;7.70;100.00
25438;DHT22;13364;49.084;9.978;2023-11-21T14:24:14;7.80;100.00
25438;DHT22;13364;49.084;9.978;2023-11-21T14:26:48;7.80;100.00
25438;DHT22;13364;49.084;9.978;2023-11-21T14:29:16;7.70;100.00
25438;DHT22;13364;49.084;9.978;2023-11-21T14:31:47;7.70;100.00
25438;DHT22;13364;49.084;9.978;2023-11-21T14:34:14;7.70;100.00
25438;DHT22;13364;49.084;9.978;2023-11-21T14:36:46;7.70;100.00
25438;DHT22;13364;49.084;9.978;2023-11-21T14:39:13;7.70;100.00
25438;DHT22;13364;49.084;9.978;2023-11-21T14:41:50;7.70;100.00
25438;DHT22;13364;49.084;9.978;2023-11-21T14:44:17;7.80;100.00
25438;DHT22;13364;49.084;9.978;2023-11-21T14:46:44;7.70;100.00
25438;DHT22;13364;49.084;9.978;2023-11-21T14:49:13;7.80;100.00
25438;DHT22;13364;49.084;9.978;2023-11-21T14:51:52;7.80;100.00
25438;DHT22;13364;49.084;9.978;2023-11-21T14:54:46;7.90;100.00
25438;DHT22;13364;49.084;9.978;2023-11-21T14:57:13;7.90;100.00
25438;DHT22;13364;49.084;9.978;2023-11-21T14:59:47;7.90;100.00
25438;DHT22;13364;49.084;9.978;2023-11-21T15:02:18;7.90;100.00
25438;DHT22;13364;49.084;9.978;2023-11-21T15:04:49;7.90;100.00
25438;DHT22;13364;49.084;9.978;2023-11-21T15:07:19;7.90;100.00
25438;DHT22;13364;49.084;9.978;2023-11-21T15:09:46;8.00;100.00
25438;DHT22;13364;49.084;9.978;2023-11-21T15:12:13;8.00;100.00
25438;DHT22;13364;49.084;9.978;2023-11-21T15:14:46;8.10;100.00
25438;DHT22;13364;49.084;9.978;2023-11-21T15:17:15;8.10;100.00
25438;DHT22;13364;49.084;9.978;2023-11-21T15:19:49;8.10;100.00
25438;DHT22;13364;49.084;9.978;2023-11-21T15:22:17;8.10;100.00
25438;DHT22;13364;49.084;9.978;2023-11-21T15:24:44;8.10;100.00
25438;DHT22;13364;49.084;9.978;2023-11-21T15:27:14;8.10;100.00
25438;DHT22;13364;49.084;9.978;2023-11-21T15:29:43;8.10;100.00
25438;DHT22;13364;49.084;9.978;2023-11-21T15:32:10;8.20;100.00
25438;DHT22;13364;49.084;9.978;2023-11-21T15:34:38;8.20;100.00
25438;DHT22;13364;49.084;9.978;2023-11-21T15:37:06;8.20;100.00
25438;DHT22;13364;49.084;9.978;2023-11-21T15:39:38;8.30;100.00
25438;DHT22;13364;49.084;9.978;2023-11-21T15:42:06;8.30;100.00
25438;DHT22;13364;49.084;9.978;2023-11-21T15:44:34;8.30;100.00
25438;DHT22;13364;49.084;9.978;2023-11-21T15:47:01;8.40;100.00
25438;DHT22;13364;49.084;9.978;2023-11-21T15:49:34;8.40;100.00
25438;DHT22;13364;49.084;9.978;2023-11-21T15:52:05;8.50;100.00
25438;DHT22;13364;49.084;9.978;2023-11-21T15:54:34;8.50;100.00
25438;DHT22;13364;49.084;9.978;2023-11-21T15:57:03;8.50;100.00
25438;DHT22;13364;49.084;9.978;2023-11-21T15:59:31;8.50;100.00
25438;DHT22;13364;49.084;9.978;2023-11-21T16:02:00;8.50;100.00
25438;DHT22;13364;49.084;9.978;2023-11-21T16:04:28;8.50;100.00
25438;DHT22;13364;49.084;9.978;2023-11-21T16:06:55;8.50;100.00
25438;DHT22;13364;49.084;9.978;2023-11-21T16:09:22;8.50;100.00
25438;DHT22;13364;49.084;9.978;2023-11-21T16:11:52;8.30;100.00
25438;DHT22;13364;49.084;9.978;2023-11-21T16:14:31;8.10;100.00
25438;DHT22;13364;49.084;9.978;2023-11-21T16:17:13;8.00;100.00
25438;DHT22;13364;49.084;9.978;2023-11-21T16:19:44;7.80;100.00
25438;DHT22;13364;49.084;9.978;2023-11-21T16:22:11;7.80;100.00
25438;DHT22;13364;49.084;9.978;2023-11-21T16:24:38;7.80;100.00
25438;DHT22;13364;49.084;9.978;2023-11-21T16:27:05;7.70;100.00
25438;DHT22;13364;49.084;9.978;2023-11-21T16:29:37;7.70;100.00
25438;DHT22;13364;49.084;9.978;2023-11-21T16:32:05;7.60;100.00
25438;DHT22;13364;49.084;9.978;2023-11-21T16:34:33;7.60;100.00
25438;DHT22;13364;49.084;9.978;2023-11-21T16:37:00;7.60;100.00
25438;DHT22;13364;49.084;9.978;2023-11-21T16:39:27;7.50;100.00
25438;DHT22;13364;49.084;9.978;2023-11-21T16:41:54;7.40;100.00
25438;DHT22;13364;49.084;9.978;2023-11-21T16:44:21;7.50;100.00
25438;DHT22;13364;49.084;9.978;2023-11-21T16:46:50;7.50;100.00
25438;DHT22;13364;49.084;9.978;2023-11-21T16:49:19;7.50;100.00
25438;DHT22;13364;49.084;9.978;2023-11-21T16:51:46;7.50;100.00
25438;DHT22;13364;49.084;9.978;2023-11-21T16:54:14;7.50;100.00
25438;DHT22;13364;49.084;9.978;2023-11-21T16:56:45;7.50;100.00
25438;DHT22;13364;49.084;9.978;2023-11-21T16:59:14;7.50;100.00
25438;DHT22;13364;49.084;9.978;2023-11-21T17:01:42;7.50;100.00
25438;DHT22;13364;49.084;9.978;2023-11-21T17:04:12;7.50;100.00
25438;DHT22;13364;49.084;9.978;2023-11-21T17:06:41;7.50;100.00
25438;DHT22;13364;49.084;9.978;2023-11-21T17:09:08;7.50;100.00
25438;DHT22;13364;49.084;9.978;2023-11-21T17:11:37;7.50;100.00
25438;DHT22;13364;49.084;9.978;2023-11-21T17:14:04;7.50;100.00
25438;DHT22;13364;49.084;9.978;2023-11-21T17:16:32;7.50;100.00
25438;DHT22;13364;49.084;9.978;2023-11-21T17:18:59;7.50;100.00
25438;DHT22;13364;49.084;9.978;2023-11-21T17:21:26;7.50;100.00
25438;DHT22;13364;49.084;9.978;2023-11-21T17:24:00;7.40;100.00
25438;DHT22;13364;49.084;9.978;2023-11-21T17:26:27;7.50;100.00
25438;DHT22;13364;49.084;9.978;2023-11-21T17:28:54;7.40;100.00
25438;DHT22;13364;49.084;9.978;2023-11-21T17:31:24;7.40;100.00
25438;DHT22;13364;49.084;9.978;2023-11-21T17:33:51;7.40;100.00
25438;DHT22;13364;49.084;9.978;2023-11-21T17:36:20;7.40;100.00
25438;DHT22;13364;49.084;9.978;2023-11-21T17:38:47;7.50;100.00
25438;DHT22;13364;49.084;9.978;2023-11-21T17:41:21;7.50;100.00
25438;DHT22;13364;49.084;9.978;2023-11-21T17:43:49;7.40;100.00
25438;DHT22;13364;49.084;9.978;2023-11-21T17:46:20;7.40;100.00
25438;DHT22;13364;49.084;9.978;2023-11-21T17:48:49;7.30;100.00
25438;DHT22;13364;49.084;9.978;2023-11-21T17:51:16;7.30;100.00
25438;DHT22;13364;49.084;9.978;2023-11-21T17:53:43;7.20;100.00
25438;DHT22;13364;49.084;9.978;2023-11-21T17:56:14;7.20;100.00
25438;DHT22;13364;49.084;9.978;2023-11-21T17:58:42;7.10;100.00
25438;DHT22;13364;49.084;9.978;2023-11-21T18:01:09;7.10;100.00
25438;DHT22;13364;49.084;9.978;2023-11-21T18:03:37;7.20;100.00
25438;DHT22;13364;49.084;9.978;2023-11-21T18:06:05;7.20;100.00
25438;DHT22;13364;49.084;9.978;2023-11-21T18:08:32;7.20;100.00
25438;DHT22;13364;49.084;9.978;2023-11-21T18:10:58;7.20;100.00
25438;DHT22;13364;49.084;9.978;2023-11-21T18:13:26;7.20;100.00
25438;DHT22;13364;49.084;9.978;2023-11-21T18:15:53;7.10;100.00
25438;DHT22;13364;49.084;9.978;2023-11-21T18:18:20;7.10;100.00
25438;DHT22;13364;49.084;9.978;2023-11-21T18:20:47;7.10;100.00
25438;DHT22;13364;49.084;9.978;2023-11-21T18:23:14;7.10;100.00
25438;DHT22;13364;49.084;9.978;2023-11-21T18:25:41;7.10;100.00
25438;DHT22;13364;49.084;9.978;2023-11-21T18:28:08;7.10;100.00
25438;DHT22;13364;49.084;9.978;2023-11-21T18:30:35;7.20;100.00
25438;DHT22;13364;49.084;9.978;2023-11-21T18:33:02;7.20;100.00
25438;DHT22;13364;49.084;9.978;2023-11-21T18:35:30;7.20;100.00
25438;DHT22;13364;49.084;9.978;2023-11-21T18:37:58;7.20;100.00
25438;DHT22;13364;49.084;9.978;2023-11-21T18:40:25;7.20;100.00
25438;DHT22;13364;49.084;9.978;2023-11-21T18:42:52;7.20;100.00
25438;DHT22;13364;49.084;9.978;2023-11-21T18:45:19;7.20;100.00
25438;DHT22;13364;49.084;9.978;2023-11-21T18:47:45;7.10;100.00
25438;DHT22;13364;49.084;9.978;2023-11-21T18:50:15;7.10;100.00
25438;DHT22;13364;49.084;9.978;2023-11-21T18:52:47;7.20;100.00
25438;DHT22;13364;49.084;9.978;2023-11-21T18:55:16;7.20;100.00
25438;DHT22;13364;49.084;9.978;2023-11-21T18:57:43;7.20;100.00
25438;DHT22;13364;49.084;9.978;2023-11-21T19:00:10;7.20;100.00
25438;DHT22;13364;49.084;9.978;2023-11-21T19:02:39;7.30;100.00
25438;DHT22;13364;49.084;9.978;2023-11-21T19:05:07;7.30;100.00
25438;DHT22;13364;49.084;9.978;2023-11-21T19:07:34;7.40;100.00
25438;DHT22;13364;49.084;9.978;2023-11-21T19:10:04;7.40;100.00
25438;DHT22;13364;49.084;9.978;2023-11-21T19:12:36;7.50;100.00
25438;DHT22;13364;49.084;9.978;2023-11-21T19:15:07;7.60;100.00
25438;DHT22;13364;49.084;9.978;2023-11-21T19:17:39;7.60;100.00
25438;DHT22;13364;49.084;9.978;2023-11-21T19:20:08;7.60;100.00
25438;DHT22;13364;49.084;9.978;2023-11-21T19:22:37;7.60;100.00
25438;DHT22;13364;49.084;9.978;2023-11-21T19:25:05;7.60;100.00
25438;DHT22;13364;49.084;9.978;2023-11-21T19:27:32;7.60;100.00
25438;DHT22;13364;49.084;9.978;2023-11-21T19:29:59;7.70;100.00
25438;DHT22;13364;49.084;9.978;2023-11-21T19:32:25;7.70;100.00
25438;DHT22;13364;49.084;9.978;2023-11-21T19:34:52;7.70;100.00
25438;DHT22;13364;49.084;9.978;2023-11-21T19:37:19;7.70;100.00
25438;DHT22;13364;49.084;9.978;2023-11-21T19:39:46;7.60;100.00
25438;DHT22;13364;49.084;9.978;2023-11-21T19:42:14;7.60;100.00
25438;DHT22;13364;49.084;9.978;2023-11-21T19:44:41;7.50;100.00
25438;DHT22;13364;49.084;9.978;2023-11-21T19:47:09;7.50;100.00
25438;DHT22;13364;49.084;9.978;2023-11-21T19:49:36;7.40;100.00
25438;DHT22;13364;49.084;9.978;2023-11-21T19:52:03;7.30;100.00
25438;DHT22;13364;49.084;9.978;2023-11-21T19:54:33;7.20;100.00
25438;DHT22;13364;49.084;9.978;2023-11-21T19:57:00;7.20;100.00
25438;DHT22;13364;49.084;9.978;2023-11-21T19:59:31;7.20;100.00
25438;DHT22;13364;49.084;9.978;2023-11-21T20:01:59;7.20;100.00
25438;DHT22;13364;49.084;9.978;2023-11-21T20:04:26;7.20;100.00
25438;DHT22;13364;49.084;9.978;2023-11-21T20:06:53;7.20;100.00
25438;DHT22;13364;49.084;9.978;2023-11-21T20:09:23;7.20;100.00
25438;DHT22;13364;49.084;9.978;2023-11-21T20:11:50;7.10;100.00
25438;DHT22;13364;49.084;9.978;2023-11-21T20:14:18;7.10;100.00
25438;DHT22;13364;49.084;9.978;2023-11-21T20:16:45;7.10;100.00
25438;DHT22;13364;49.084;9.978;2023-11-21T20:19:14;7.10;100.00
25438;DHT22;13364;49.084;9.978;2023-11-21T20:21:41;7.10;100.00
25438;DHT22;13364;49.084;9.978;2023-11-21T20:24:07;7.10;100.00
25438;DHT22;13364;49.084;9.978;2023-11-21T20:26:38;7.10;100.00
25438;DHT22;13364;49.084;9.978;2023-11-21T20:29:08;7.00;100.00
25438;DHT22;13364;49.084;9.978;2023-11-21T20:31:35;7.00;100.00
25438;DHT22;13364;49.084;9.978;2023-11-21T20:34:02;7.10;100.00
25438;DHT22;13364;49.084;9.978;2023-11-21T20:36:29;7.10;100.00
25438;DHT22;13364;49.084;9.978;2023-11-21T20:38:56;7.20;100.00
25438;DHT22;13364;49.084;9.978;2023-11-21T20:41:22;7.20;100.00
25438;DHT22;13364;49.084;9.978;2023-11-21T20:43:49;7.30;100.00
25438;DHT22;13364;49.084;9.978;2023-11-21T20:46:18;7.30;100.00
25438;DHT22;13364;49.084;9.978;2023-11-21T20:48:44;7.30;100.00
25438;DHT22;13364;49.084;9.978;2023-11-21T20:51:12;7.30;100.00
25438;DHT22;13364;49.084;9.978;2023-11-21T20:53:39;7.30;100.00
25438;DHT22;13364;49.084;9.978;2023-11-21T20:56:06;7.20;100.00
25438;DHT22;13364;49.084;9.978;2023-11-21T20:58:33;7.10;100.00
25438;DHT22;13364;49.084;9.978;2023-11-21T21:01:00;7.00;100.00
25438;DHT22;13364;49.084;9.978;2023-11-21T21:03:27;7.00;100.00